Time;durP1;ratioP1;P1;durP2;ratioP2;P2;SDS_P1;SDS_P2;PMS_P1;PMS_P2;Temp;Humidity;BMP_temperature;BMP_pressure;BME280_temperature;BME280_humidity;BME280_pressure;Samples;Min_cycle;Max_cycle;Signal;HPM_P1;HPM_P2
2023/07/11 00:00:40;;;;;;;9.10;2.50;;;16.10;99.90;15.60;100556;;;;563579;248;24162;-82
2023/07/11 00:03:08;;;;;;;2.47;2.10;;;16.00;99.90;15.60;100554;;;;572768;245;24050;-82
2023/07/11 00:05:39;;;;;;;3.67;2.47;;;16.00;99.90;15.50;100565;;;;572361;247;24094;-82
2023/07/11 00:08:08;;;;;;;2.87;2.63;;;16.00;99.90;15.50;100561;;;;571980;247;24066;-83
2023/07/11 00:10:35;;;;;;;4.00;2.77;;;16.00;99.90;15.50;100562;;;;571442;247;24128;-84
2023/07/11 00:13:00;;;;;;;2.23;2.10;;;16.00;99.90;15.50;100550;;;;571397;247;24157;-83
2023/07/11 00:15:28;;;;;;;2.90;2.63;;;16.00;99.90;15.50;100548;;;;552712;255;24151;-84
2023/07/11 00:17:56;;;;;;;2.47;2.37;;;15.90;99.90;15.50;100551;;;;564460;250;24134;-84
2023/07/11 00:20:27;;;;;;;2.40;2.20;;;16.00;99.90;15.50;100545;;;;572062;247;24128;-84
2023/07/11 00:22:55;;;;;;;2.67;2.47;;;16.00;99.90;15.50;100539;;;;571784;247;24102;-84
2023/07/11 00:25:21;;;;;;;3.07;2.57;;;15.90;99.90;15.40;100536;;;;571268;246;24101;-84
2023/07/11 00:27:48;;;;;;;3.37;2.63;;;15.90;99.90;15.40;100528;;;;571569;247;24078;-84
2023/07/11 00:30:20;;;;;;;3.10;2.37;;;15.90;99.90;15.40;100530;;;;571458;247;24094;-85
2023/07/11 00:32:44;;;;;;;2.43;2.23;;;15.90;99.90;15.40;100528;;;;569467;252;24150;-83
2023/07/11 00:35:12;;;;;;;5.40;2.77;;;15.90;99.90;15.40;100521;;;;571875;246;24109;-82
2023/07/11 00:37:40;;;;;;;3.30;2.13;;;15.90;99.90;15.40;100514;;;;571840;247;24070;-84
2023/07/11 00:40:11;;;;;;;2.60;2.37;;;15.80;99.90;15.30;100513;;;;571470;246;23079;-83
2023/07/11 00:42:39;;;;;;;2.23;2.03;;;15.80;99.90;15.30;100509;;;;571138;247;24068;-83
2023/07/11 00:45:53;;;;;;;2.73;2.33;;;15.80;99.90;15.30;100508;;;;571998;247;24061;-84
2023/07/11 00:48:21;;;;;;;3.47;2.30;;;15.80;99.90;15.30;100507;;;;571560;247;24106;-82
2023/07/11 00:50:46;;;;;;;2.70;2.40;;;15.70;99.90;15.20;100514;;;;571254;247;24117;-83
2023/07/11 00:53:13;;;;;;;2.90;2.47;;;15.70;99.90;15.20;100515;;;;553696;255;24144;-83
2023/07/11 00:55:41;;;;;;;9.13;1.97;;;15.70;99.90;15.20;100510;;;;563528;250;24191;-83
2023/07/11 00:58:09;;;;;;;2.60;2.33;;;15.60;99.90;15.20;100511;;;;571249;247;24059;-83
2023/07/11 01:00:37;;;;;;;3.37;2.10;;;15.60;99.90;15.20;100512;;;;571292;246;24114;-82
2023/07/11 01:03:08;;;;;;;2.47;2.27;;;15.60;99.90;15.10;100501;;;;571657;247;24071;-82
2023/07/11 01:05:43;;;;;;;2.73;2.17;;;15.60;99.90;15.10;100506;;;;580004;247;24133;-83
2023/07/11 01:08:04;;;;;;;12.90;2.63;;;15.60;99.90;15.10;100502;;;;571105;247;24113;-83
2023/07/11 01:10:33;;;;;;;2.10;2.00;;;15.60;99.90;15.10;100509;;;;560781;252;24183;-83
2023/07/11 01:13:01;;;;;;;2.90;2.70;;;15.50;99.90;15.10;100512;;;;566932;246;35067;-83
2023/07/11 01:15:32;;;;;;;2.43;2.23;;;15.50;99.90;15.10;100517;;;;572744;245;24064;-83
2023/07/11 01:17:57;;;;;;;2.23;2.10;;;15.50;99.90;15.10;100515;;;;572520;245;24071;-83
2023/07/11 01:20:25;;;;;;;2.70;2.50;;;15.60;99.90;15.10;100514;;;;572419;245;24062;-83
2023/07/11 01:22:56;;;;;;;3.97;2.50;;;15.60;99.90;15.10;100504;;;;572094;246;24083;-82
2023/07/11 01:25:20;;;;;;;3.93;2.40;;;15.60;99.90;15.10;100509;;;;572101;247;24086;-84
2023/07/11 01:27:48;;;;;;;2.80;2.53;;;15.60;99.90;15.00;100498;;;;553907;255;24117;-82
2023/07/11 01:30:17;;;;;;;2.40;2.20;;;15.50;99.90;15.00;100497;;;;563998;250;24175;-83
2023/07/11 01:32:49;;;;;;;2.67;2.47;;;15.50;99.90;15.00;100503;;;;571551;247;24123;-84
2023/07/11 01:35:26;;;;;;;2.77;2.57;;;15.50;99.90;15.10;100496;;;;571515;247;24090;-83
2023/07/11 01:37:45;;;;;;;3.93;2.40;;;15.60;99.90;15.10;100494;;;;570193;247;24127;-82
2023/07/11 01:40:16;;;;;;;2.77;2.57;;;15.60;99.90;15.10;100486;;;;553745;254;24079;-83
2023/07/11 01:42:40;;;;;;;5.03;2.87;;;15.60;99.90;15.10;100494;;;;553706;255;24139;-83
2023/07/11 01:45:13;;;;;;;2.47;2.13;;;15.60;99.90;15.10;100495;;;;562629;251;24151;-83
2023/07/11 01:47:38;;;;;;;4.53;2.47;;;15.60;99.90;15.10;100504;;;;563870;250;24147;-83
2023/07/11 01:50:09;;;;;;;2.53;2.43;;;15.60;99.90;15.10;100509;;;;571688;247;24060;-84
2023/07/11 01:52:38;;;;;;;2.60;2.40;;;15.60;99.90;15.10;100516;;;;571519;247;24141;-82
2023/07/11 01:55:02;;;;;;;2.37;2.23;;;15.60;99.90;15.10;100515;;;;571571;247;26236;-82
2023/07/11 01:57:34;;;;;;;2.73;2.53;;;15.60;99.90;15.10;100521;;;;571356;246;24064;-84
2023/07/11 01:59:58;;;;;;;4.07;3.13;;;15.60;99.90;15.10;100526;;;;579527;247;24073;-83
2023/07/11 02:02:29;;;;;;;5.47;2.70;;;15.60;99.90;15.10;100514;;;;571300;246;24093;-83
2023/07/11 02:04:57;;;;;;;2.60;2.43;;;15.60;99.90;15.10;100514;;;;570968;246;24102;-83
2023/07/11 02:07:22;;;;;;;3.17;2.90;;;15.60;99.90;15.10;100511;;;;570899;247;24052;-83
2023/07/11 02:09:51;;;;;;;3.20;3.00;;;15.60;99.90;15.10;100507;;;;571313;246;24058;-82
2023/07/11 02:12:19;;;;;;;3.53;3.17;;;15.60;99.90;15.10;100507;;;;571233;247;24078;-82
2023/07/11 02:14:47;;;;;;;3.90;3.07;;;15.60;99.90;15.10;100506;;;;571348;246;24076;-82
2023/07/11 02:17:17;;;;;;;3.73;3.13;;;15.60;99.90;15.20;100504;;;;571632;247;24133;-82
2023/07/11 02:19:45;;;;;;;4.57;3.80;;;15.60;99.90;15.20;100500;;;;571658;247;24105;-82
2023/07/11 02:22:13;;;;;;;5.80;3.87;;;15.70;99.90;15.20;100497;;;;571663;247;24235;-83
2023/07/11 02:24:42;;;;;;;3.17;2.97;;;15.70;99.90;15.20;100493;;;;572352;246;24104;-82
2023/07/11 02:27:11;;;;;;;5.73;3.57;;;15.70;99.90;15.20;100494;;;;554925;255;24102;-82
2023/07/11 02:29:38;;;;;;;3.67;3.33;;;15.70;99.90;15.20;100484;;;;564596;250;24144;-82
2023/07/11 02:32:09;;;;;;;4.37;3.97;;;15.70;99.90;15.20;100490;;;;572743;247;24044;-82
2023/07/11 02:34:37;;;;;;;3.07;2.87;;;15.70;99.90;15.20;100492;;;;571972;247;24125;-82
2023/07/11 02:37:05;;;;;;;4.40;3.37;;;15.70;99.90;15.20;100494;;;;569715;252;24157;-84
2023/07/11 02:39:37;;;;;;;5.33;2.90;;;15.70;99.90;15.20;100487;;;;571675;247;24084;-82
2023/07/11 02:42:01;;;;;;;3.30;2.93;;;15.70;99.90;15.20;100497;;;;580033;241;24066;-82
2023/07/11 02:44:29;;;;;;;5.07;2.87;;;15.70;99.90;15.20;100496;;;;572535;247;24138;-82
2023/07/11 02:46:57;;;;;;;3.00;2.73;;;15.70;99.90;15.20;100499;;;;572922;247;24076;-81
2023/07/11 02:49:27;;;;;;;5.10;3.70;;;15.70;99.90;15.20;100502;;;;573110;247;24085;-83
2023/07/11 02:51:52;;;;;;;3.40;3.10;;;15.70;99.90;15.20;100501;;;;572199;246;24115;-82
2023/07/11 02:54:20;;;;;;;5.43;3.60;;;15.70;99.90;15.20;100505;;;;572075;246;24101;-82
2023/07/11 02:56:48;;;;;;;5.27;4.13;;;15.70;99.90;15.20;100510;;;;572091;247;24058;-81
2023/07/11 02:59:16;;;;;;;4.43;4.03;;;15.70;99.90;15.20;100502;;;;553583;254;24110;-82
2023/07/11 03:01:45;;;;;;;6.67;3.63;;;15.70;99.90;15.30;100502;;;;563964;250;24360;-82
2023/07/11 03:04:12;;;;;;;3.57;3.27;;;15.80;99.90;15.30;100507;;;;571593;247;24153;-82
2023/07/11 03:06:43;;;;;;;5.40;3.23;;;15.80;99.90;15.30;100506;;;;571864;246;24061;-82
2023/07/11 03:09:09;;;;;;;3.87;3.40;;;15.80;99.90;15.30;100504;;;;571797;246;24094;-82
2023/07/11 03:11:41;;;;;;;3.90;3.10;;;15.80;99.90;15.30;100507;;;;572377;247;24106;-82
2023/07/11 03:14:07;;;;;;;4.35;4.00;;;15.90;99.90;15.40;100510;;;;566698;247;35180;-83
2023/07/11 03:16:35;;;;;;;4.77;3.57;;;15.80;99.90;15.40;100514;;;;571627;247;24104;-82
2023/07/11 03:19:03;;;;;;;4.57;3.40;;;15.90;99.90;15.50;100517;;;;571419;247;24063;-82
2023/07/11 03:21:33;;;;;;;3.07;2.83;;;15.90;99.90;15.50;100513;;;;553465;254;24109;-83
2023/07/11 03:23:58;;;;;;;3.63;3.37;;;16.00;99.90;15.50;100512;;;;563786;250;24149;-83
2023/07/11 03:26:26;;;;;;;4.03;3.33;;;16.00;99.90;15.60;100514;;;;571382;247;24098;-84
2023/07/11 03:28:54;;;;;;;4.50;2.90;;;16.10;99.90;15.70;100513;;;;571272;247;24106;-81
2023/07/11 03:31:22;;;;;;;5.27;3.80;;;16.20;99.90;15.70;100509;;;;553257;255;24205;-83
2023/07/11 03:33:51;;;;;;;3.07;2.77;;;16.30;99.90;15.80;100504;;;;563680;250;24127;-82
2023/07/11 03:36:20;;;;;;;5.00;3.10;;;16.30;99.90;15.80;100507;;;;571921;246;28427;-83
2023/07/11 03:38:48;;;;;;;3.33;3.03;;;16.30;99.90;15.90;100507;;;;572529;247;24142;-83
2023/07/11 03:41:17;;;;;;;3.30;3.00;;;16.40;99.90;15.90;100505;;;;572180;247;24109;-82
2023/07/11 03:43:46;;;;;;;3.30;3.00;;;16.40;99.90;16.00;100504;;;;572158;247;24054;-82
2023/07/11 03:46:17;;;;;;;4.63;3.77;;;16.40;99.90;16.00;100513;;;;572056;247;24057;-82
2023/07/11 03:48:42;;;;;;;3.20;2.93;;;16.50;99.90;16.00;100515;;;;571937;247;24088;-82
2023/07/11 03:51:09;;;;;;;7.50;3.63;;;16.50;99.90;16.10;100515;;;;554250;255;24114;-82
2023/07/11 03:53:43;;;;;;;4.97;3.40;;;16.60;99.90;16.20;100521;;;;564475;250;24156;-83
2023/07/11 03:56:11;;;;;;;4.40;3.60;;;16.70;99.90;16.30;100516;;;;571971;247;24073;-83
2023/07/11 03:58:39;;;;;;;3.57;3.27;;;16.80;99.90;16.30;100517;;;;571636;247;24095;-83
2023/07/11 04:01:13;;;;;;;3.23;3.00;;;16.80;99.90;16.40;100508;;;;571456;246;24097;-82
2023/07/11 04:03:38;;;;;;;3.87;3.57;;;16.90;99.90;16.40;100519;;;;558450;252;24132;-82
2023/07/11 04:06:06;;;;;;;4.77;3.80;;;16.90;99.90;16.40;100511;;;;571582;247;24172;-83
2023/07/11 04:08:34;;;;;;;3.63;3.40;;;16.90;99.90;16.40;100510;;;;571387;246;24078;-82
2023/07/11 04:11:02;;;;;;;3.63;3.33;;;16.90;99.90;16.40;100506;;;;571688;246;24083;-81
2023/07/11 04:13:31;;;;;;;4.47;3.33;;;16.90;99.90;16.50;100501;;;;553459;255;24174;-81
2023/07/11 04:16:00;;;;;;;3.90;3.40;;;17.00;99.90;16.50;100504;;;;563545;250;23145;-82
2023/07/11 04:18:28;;;;;;;4.37;3.97;;;17.00;99.90;16.60;100503;;;;571699;247;24094;-81
2023/07/11 04:20:56;;;;;;;4.57;3.90;;;17.10;99.90;16.70;100499;;;;566567;247;35108;-81
2023/07/11 04:23:23;;;;;;;4.70;4.30;;;17.20;99.90;16.80;100507;;;;571579;247;24129;-82
2023/07/11 04:25:51;;;;;;;3.23;2.93;;;17.20;99.90;16.80;100506;;;;571551;247;24046;-82
2023/07/11 04:28:20;;;;;;;3.37;3.17;;;17.30;99.90;16.80;100506;;;;553658;254;24095;-82
2023/07/11 04:30:50;;;;;;;3.97;3.37;;;17.30;99.90;16.90;100511;;;;563926;250;24210;-82
2023/07/11 04:33:15;;;;;;;5.63;2.90;;;17.40;99.90;17.00;100507;;;;571070;247;24146;-82
2023/07/11 04:35:44;;;;;;;3.90;3.50;;;17.50;99.90;17.00;100506;;;;571361;246;24058;-82
2023/07/11 04:38:12;;;;;;;3.50;3.20;;;17.60;99.90;17.10;100505;;;;553241;255;24148;-82
2023/07/11 04:40:40;;;;;;;4.37;3.87;;;17.60;99.90;17.20;100513;;;;552463;255;25147;-83
2023/07/11 04:43:08;;;;;;;3.97;3.47;;;17.70;99.90;17.30;100512;;;;572082;248;24126;-83
2023/07/11 04:45:36;;;;;;;4.03;3.63;;;17.80;99.90;17.50;100507;;;;571185;247;24070;-82
2023/07/11 04:48:07;;;;;;;4.70;3.37;;;17.90;99.90;17.60;100509;;;;572538;246;24058;-81
2023/07/11 04:50:35;;;;;;;3.70;3.40;;;18.10;99.90;17.70;100518;;;;572542;247;24097;-83
2023/07/11 04:53:00;;;;;;;4.83;3.40;;;18.20;99.90;17.80;100515;;;;581128;241;24069;-83
2023/07/11 04:55:28;;;;;;;3.97;3.63;;;18.40;99.90;18.00;100511;;;;572434;247;24087;-82
2023/07/11 04:57:56;;;;;;;5.13;3.77;;;18.50;99.90;18.10;100509;;;;572081;241;24078;-83
2023/07/11 05:00:24;;;;;;;3.90;3.60;;;18.60;99.90;18.10;100512;;;;571871;247;24055;-83
2023/07/11 05:02:52;;;;;;;4.00;3.67;;;18.70;99.90;18.20;100512;;;;571754;247;24131;-82
2023/07/11 05:05:19;;;;;;;5.10;3.70;;;18.70;99.90;18.20;100520;;;;571797;247;24048;-82
2023/07/11 05:07:47;;;;;;;4.63;3.47;;;18.70;99.90;18.20;100526;;;;571528;247;24100;-83
2023/07/11 05:10:15;;;;;;;4.37;3.63;;;18.80;99.90;18.20;100525;;;;571608;247;23075;-82
2023/07/11 05:12:43;;;;;;;3.97;3.13;;;18.80;99.90;18.20;100523;;;;571611;247;24098;-83
2023/07/11 05:15:12;;;;;;;4.27;3.97;;;18.70;99.90;18.20;100517;;;;571537;247;24195;-83
2023/07/11 05:17:39;;;;;;;3.90;3.60;;;18.70;99.90;18.20;100518;;;;571441;246;24137;-82
2023/07/11 05:20:07;;;;;;;3.30;3.10;;;18.80;99.90;18.20;100531;;;;553986;255;24182;-82
2023/07/11 05:22:35;;;;;;;3.60;3.40;;;18.70;99.90;18.20;100525;;;;573782;247;24146;-84
2023/07/11 05:25:04;;;;;;;3.43;3.17;;;18.60;99.90;18.10;100535;;;;571975;247;24063;-82
2023/07/11 05:27:33;;;;;;;3.83;3.53;;;18.60;99.90;18.10;100533;;;;580671;247;24060;-80
2023/07/11 05:30:05;;;;;;;3.13;2.93;;;18.60;99.90;18.10;100529;;;;572157;246;24076;-83
2023/07/11 05:32:29;;;;;;;4.37;4.07;;;18.60;99.90;18.10;100533;;;;572024;247;24144;-83
2023/07/11 05:34:57;;;;;;;3.60;3.33;;;18.60;99.90;18.10;100549;;;;571526;246;24050;-82
2023/07/11 05:37:25;;;;;;;3.77;3.53;;;18.60;99.90;18.10;100545;;;;553355;255;24096;-83
2023/07/11 05:39:53;;;;;;;5.37;3.37;;;18.60;99.90;18.10;100543;;;;563956;246;24146;-81
2023/07/11 05:42:21;;;;;;;3.73;3.13;;;18.60;99.90;18.10;100538;;;;571868;247;24143;-82
2023/07/11 05:44:49;;;;;;;4.03;3.67;;;18.60;99.90;18.20;100540;;;;572222;247;24109;-82
2023/07/11 05:47:17;;;;;;;4.47;4.07;;;18.70;99.90;18.40;100536;;;;571788;246;24035;-83
2023/07/11 05:49:45;;;;;;;7.67;3.80;;;18.90;99.90;18.50;100534;;;;571292;247;24074;-81
2023/07/11 05:52:14;;;;;;;5.00;4.45;;;19.10;99.90;18.60;100539;;;;566769;246;46129;-85
2023/07/11 05:54:42;;;;;;;8.80;3.23;;;19.00;99.90;18.80;100547;;;;571769;247;24152;-83
2023/07/11 05:57:10;;;;;;;5.90;3.50;;;19.30;99.90;19.00;100542;;;;571639;247;24152;-85
2023/07/11 05:59:38;;;;;;;5.50;3.90;;;19.50;99.90;19.20;100547;;;;572538;246;23125;-84
2023/07/11 06:02:09;;;;;;;3.83;3.50;;;19.70;99.90;19.40;100548;;;;572916;247;24108;-84
2023/07/11 06:04:34;;;;;;;4.50;4.10;;;19.90;99.90;19.50;100555;;;;548946;255;40780;-83
2023/07/11 06:07:02;;;;;;;4.62;4.22;;;19.90;99.90;19.50;100545;;;;559525;250;35619;-84
2023/07/11 06:09:29;;;;;;;4.23;3.30;;;20.10;99.90;19.80;100543;;;;571853;247;24125;-82
2023/07/11 06:11:58;;;;;;;3.60;3.40;;;20.60;99.90;20.20;100549;;;;571790;247;24038;-83
2023/07/11 06:14:27;;;;;;;5.90;3.53;;;21.10;99.90;20.70;100558;;;;553735;255;24108;-82
2023/07/11 06:17:00;;;;;;;4.57;4.17;;;21.00;99.90;21.30;100560;;;;573639;246;24192;-84
2023/07/11 06:19:34;;;;;;;3.73;3.53;;;21.70;99.90;21.90;100562;;;;571428;247;24086;-84
2023/07/11 06:22:01;;;;;;;4.17;3.77;;;22.30;99.90;22.20;100564;;;;571879;241;24094;-83
2023/07/11 06:24:29;;;;;;;4.70;4.30;;;22.70;99.90;22.50;100556;;;;553871;255;24145;-84
2023/07/11 06:27:01;;;;;;;6.40;4.03;;;23.10;99.90;22.60;100554;;;;564232;250;24156;-84
2023/07/11 06:29:34;;;;;;;6.37;3.97;;;23.20;99.90;22.50;100561;;;;571974;247;23109;-84
2023/07/11 06:31:59;;;;;;;8.87;4.43;;;23.10;99.90;22.30;100560;;;;571862;247;24129;-83
2023/07/11 06:34:27;;;;;;;5.13;4.00;;;23.00;99.90;22.00;100557;;;;554215;255;24154;-84
2023/07/11 06:36:55;;;;;;;4.10;3.73;;;22.70;99.90;21.70;100554;;;;563801;250;23208;-84
2023/07/11 06:39:23;;;;;;;4.40;4.03;;;22.40;99.90;21.50;100564;;;;571139;247;24087;-84
2023/07/11 06:41:51;;;;;;;8.87;4.47;;;22.20;99.90;21.20;100558;;;;571342;247;24061;-83
2023/07/11 06:44:23;;;;;;;5.90;4.37;;;21.90;99.90;21.10;100559;;;;571626;246;24070;-83
2023/07/11 06:46:47;;;;;;;9.60;5.57;;;21.70;99.90;20.90;100552;;;;571280;247;24086;-84
2023/07/11 06:49:19;;;;;;;5.23;4.43;;;21.30;99.90;20.80;100562;;;;571685;247;24076;-84
2023/07/11 06:51:44;;;;;;;19.37;16.27;;;21.20;99.90;20.60;100556;;;;563616;250;24070;-84
2023/07/11 06:54:16;;;;;;;9.23;7.50;;;21.20;99.90;20.50;100550;;;;560543;252;24130;-83
2023/07/11 06:56:40;;;;;;;6.47;5.10;;;21.10;99.90;20.50;100554;;;;571436;247;25157;-84
2023/07/11 06:59:08;;;;;;;5.47;4.63;;;21.00;99.90;20.40;100550;;;;571573;246;24073;-84
2023/07/11 07:01:39;;;;;;;5.50;5.00;;;20.90;99.90;20.30;100552;;;;553988;255;24106;-84
2023/07/11 07:04:05;;;;;;;7.13;4.33;;;20.90;99.90;20.30;100550;;;;554323;253;24138;-84
2023/07/11 07:06:35;;;;;;;8.43;4.97;;;20.80;99.90;20.40;100553;;;;563733;250;23176;-85
2023/07/11 07:09:08;;;;;;;7.13;5.17;;;20.90;99.90;20.50;100555;;;;571459;247;24061;-84
2023/07/11 07:11:35;;;;;;;6.80;4.60;;;20.90;99.90;20.60;100552;;;;572461;247;24092;-85
2023/07/11 07:14:14;;;;;;;6.47;5.87;;;21.10;99.90;20.70;100548;;;;572264;245;24106;-83
2023/07/11 07:16:47;;;;;;;6.43;4.90;;;21.30;99.90;20.80;100547;;;;564649;250;24167;-83
2023/07/11 07:19:12;;;;;;;8.17;4.77;;;21.30;99.90;20.80;100551;;;;564528;250;24159;-83
2023/07/11 07:21:43;;;;;;;8.37;5.20;;;21.30;99.90;20.80;100545;;;;571801;246;24109;-83
2023/07/11 07:24:12;;;;;;;5.83;4.73;;;21.30;99.90;21.00;100545;;;;572006;244;24059;-84
2023/07/11 07:26:36;;;;;;;8.90;5.10;;;21.50;99.90;21.10;100548;;;;554128;255;24125;-84
2023/07/11 07:29:07;;;;;;;5.57;4.87;;;21.60;99.90;21.10;100546;;;;572804;247;24110;-84
2023/07/11 07:31:35;;;;;;;6.30;4.97;;;21.70;99.90;21.10;100547;;;;570508;247;24069;-83
2023/07/11 07:34:05;;;;;;;4.80;4.40;;;21.70;99.90;21.10;100541;;;;572496;246;24083;-84
2023/07/11 07:36:37;;;;;;;7.77;4.80;;;21.60;99.90;21.00;100536;;;;572366;246;24083;-83
2023/07/11 07:39:01;;;;;;;5.57;4.63;;;21.60;99.90;21.10;100542;;;;554108;253;24187;-85
2023/07/11 07:41:29;;;;;;;6.63;4.53;;;21.60;99.90;21.30;100536;;;;553796;255;24106;-83
2023/07/11 07:44:01;;;;;;;4.93;4.53;;;21.70;99.90;21.30;100543;;;;563848;250;24228;-84
2023/07/11 07:46:29;;;;;;;7.67;4.97;;;21.90;99.90;21.40;100543;;;;579947;247;24086;-85
2023/07/11 07:48:56;;;;;;;5.37;4.63;;;22.00;99.90;21.50;100543;;;;570971;247;24054;-85
2023/07/11 07:51:22;;;;;;;5.07;4.37;;;22.10;99.90;21.60;100543;;;;571115;247;24113;-84
2023/07/11 07:53:51;;;;;;;4.97;4.30;;;22.10;99.90;21.60;100543;;;;553711;255;24130;-82
2023/07/11 07:56:22;;;;;;;6.83;5.07;;;22.10;99.90;21.60;100542;;;;563970;250;24189;-85
2023/07/11 07:58:50;;;;;;;9.17;5.20;;;22.20;99.90;21.60;100542;;;;571292;247;24066;-84
2023/07/11 08:01:21;;;;;;;6.13;4.87;;;22.10;99.90;21.70;100544;;;;571196;247;24080;-84
2023/07/11 08:03:46;;;;;;;9.43;5.40;;;22.20;99.90;21.80;100545;;;;560956;252;24117;-84
2023/07/11 08:06:14;;;;;;;5.23;3.93;;;22.30;99.90;21.90;100544;;;;571573;246;24070;-84
2023/07/11 08:08:44;;;;;;;4.80;4.40;;;22.40;99.90;21.80;100556;;;;571344;247;24102;-84
2023/07/11 08:11:13;;;;;;;5.67;4.27;;;22.30;99.90;21.70;100550;;;;553535;254;24112;-83
2023/07/11 08:13:38;;;;;;;5.27;4.63;;;22.30;99.90;21.60;100549;;;;563600;250;24149;-84
2023/07/11 08:16:09;;;;;;;4.33;4.03;;;22.20;99.90;21.50;100555;;;;571328;247;24071;-83
2023/07/11 08:18:34;;;;;;;8.87;4.73;;;22.10;99.90;21.40;100557;;;;571110;246;24060;-84
2023/07/11 08:21:02;;;;;;;5.17;4.77;;;22.00;99.90;21.30;100549;;;;571624;246;24156;-84
2023/07/11 08:23:30;;;;;;;8.87;4.37;;;21.90;99.90;21.30;100549;;;;572866;241;24067;-84
2023/07/11 08:26:01;;;;;;;4.97;4.57;;;21.80;99.90;21.20;100550;;;;554796;255;24115;-83
2023/07/11 08:28:28;;;;;;;6.73;4.17;;;21.70;99.90;21.10;100563;;;;563265;250;24226;-84
2023/07/11 08:30:53;;;;;;;5.20;4.70;;;21.60;99.90;20.90;100559;;;;580833;247;24069;-83
2023/07/11 08:33:21;;;;;;;4.47;4.07;;;21.40;99.90;20.80;100561;;;;572252;247;23072;-82
2023/07/11 08:35:50;;;;;;;4.93;4.40;;;21.30;99.90;20.80;100561;;;;572088;247;24039;-84
2023/07/11 08:38:19;;;;;;;5.87;5.07;;;21.30;99.90;20.80;100563;;;;571956;247;27255;-84
2023/07/11 08:40:47;;;;;;;6.30;4.83;;;21.30;99.90;20.90;100560;;;;571921;247;24051;-83
2023/07/11 08:43:27;;;;;;;7.13;5.20;;;21.40;99.90;21.00;100567;;;;580865;247;24079;-84
2023/07/11 08:46:05;;;;;;;6.23;4.73;;;21.50;99.90;21.00;100564;;;;571764;247;24102;-83
2023/07/11 08:48:41;;;;;;;5.47;4.90;;;21.60;99.90;21.10;100565;;;;571848;247;24125;-85
2023/07/11 08:51:23;;;;;;;7.13;4.70;;;21.60;99.90;21.20;100560;;;;570908;247;24121;-84
2023/07/11 08:53:55;;;;;;;5.50;4.63;;;21.70;99.90;21.20;100558;;;;566590;249;24187;-83
2023/07/11 08:56:43;;;;;;;4.87;4.47;;;21.70;99.90;21.30;100556;;;;567128;246;24066;-85
2023/07/11 08:59:23;;;;;;;6.93;5.20;;;21.80;99.90;21.40;100555;;;;553098;255;24106;-86
2023/07/11 09:02:09;;;;;;;108.97;62.43;;;21.90;99.90;21.60;100553;;;;553640;255;24109;-84
2023/07/11 09:04:41;;;;;;;10.00;7.60;;;22.30;99.90;21.80;100546;;;;560275;252;24135;-83
2023/07/11 09:07:12;;;;;;;7.53;5.73;;;22.30;99.90;22.10;100555;;;;570432;247;24064;-84
2023/07/11 09:09:41;;;;;;;4.83;4.37;;;22.70;99.90;22.20;100553;;;;570324;247;24106;-84
2023/07/11 09:12:10;;;;;;;4.60;4.20;;;22.70;99.90;22.50;100559;;;;571252;246;23253;-83
2023/07/11 09:14:56;;;;;;;7.23;5.47;;;23.00;99.90;22.70;100559;;;;580273;247;24059;-83
2023/07/11 09:17:38;;;;;;;4.57;4.27;;;23.20;99.90;22.90;100557;;;;571332;247;24114;-84
2023/07/11 09:20:25;;;;;;;4.17;3.87;;;23.40;99.90;23.10;100552;;;;579480;247;23144;-83
2023/07/11 09:23:14;;;;;;;5.23;4.73;;;23.60;99.90;23.20;100555;;;;570214;246;24086;-84
2023/07/11 09:25:42;;;;;;;4.07;3.77;;;23.80;99.90;23.40;100556;;;;571058;247;24124;-84
2023/07/11 09:28:19;;;;;;;6.33;4.60;;;23.90;99.90;23.60;100554;;;;571109;247;24063;-83
2023/07/11 09:30:48;;;;;;;6.57;4.37;;;24.10;99.90;23.70;100558;;;;553349;255;24109;-84
2023/07/11 09:33:24;;;;;;;5.40;4.57;;;24.40;99.90;23.80;100553;;;;553681;254;23127;-84
2023/07/11 09:35:56;;;;;;;9.63;5.93;;;24.30;99.90;23.90;100546;;;;562201;248;23113;-86
2023/07/11 09:38:32;;;;;;;6.53;4.00;;;24.40;99.90;23.90;100552;;;;571640;247;23148;-83
2023/07/11 09:41:11;;;;;;;5.27;4.73;;;24.50;99.90;23.90;100545;;;;571934;247;23087;-84
2023/07/11 09:43:39;;;;;;;5.27;4.77;;;24.50;99.90;24.00;100548;;;;571477;247;23081;-84
2023/07/11 09:46:14;;;;;;;5.70;5.20;;;24.60;99.90;24.10;100544;;;;554119;254;24130;-84
2023/07/11 09:48:43;;;;;;;9.00;4.40;;;24.70;99.90;24.30;100542;;;;553927;255;24211;-86
2023/07/11 09:51:36;;;;;;;8.87;4.80;;;24.70;99.90;24.40;100541;;;;563755;250;24137;-84
2023/07/11 09:54:00;;;;;;;5.40;4.90;;;25.00;99.90;24.70;100552;;;;571879;246;23069;-85
2023/07/11 09:56:27;;;;;;;6.27;5.67;;;25.20;99.90;25.00;100555;;;;572131;247;24051;-84
2023/07/11 09:58:58;;;;;;;6.00;5.40;;;25.50;99.90;25.20;100550;;;;571787;247;24108;-84
2023/07/11 10:01:32;;;;;;;7.47;5.00;;;25.70;99.90;26.20;100554;;;;571921;246;24141;-83
2023/07/11 10:04:00;;;;;;;5.03;4.63;;;26.50;99.90;28.40;100557;;;;554216;255;23149;-84
2023/07/11 10:06:30;;;;;;;6.10;5.50;;;28.70;99.90;30.40;100551;;;;554757;255;23152;-84
2023/07/11 10:08:58;;;;;;;7.10;5.45;;;30.80;99.90;31.30;100555;;;;555026;255;23113;-84
2023/07/11 10:11:26;;;;;;;5.57;5.03;;;31.90;99.90;32.40;100555;;;;571146;250;23180;-84
2023/07/11 10:13:57;;;;;;;5.93;5.25;;;33.00;99.20;32.70;100555;;;;571938;247;23204;-84
2023/07/11 10:16:26;;;;;;;5.60;5.10;;;33.50;93.10;32.50;100561;;;;571986;247;24165;-84
2023/07/11 10:18:54;;;;;;;5.80;4.85;;;33.20;93.50;32.10;100559;;;;563365;250;23164;-84
2023/07/11 10:21:27;;;;;;;7.12;5.50;;;33.20;93.50;31.90;100552;;;;563739;250;23129;-85
2023/07/11 10:23:53;;;;;;;14.82;5.62;;;33.00;92.30;31.50;100553;;;;580106;247;23088;-85
2023/07/11 10:26:27;;;;;;;8.25;4.85;;;32.60;92.50;31.10;100550;;;;571777;246;23095;-84
2023/07/11 10:29:07;;;;;;;5.43;4.80;;;32.10;93.50;31.00;100550;;;;571665;247;23077;-84
2023/07/11 10:31:34;;;;;;;5.05;4.65;;;31.80;94.20;31.70;100549;;;;571637;246;24082;-85
2023/07/11 10:34:15;;;;;;;4.72;4.32;;;32.20;95.00;33.30;100551;;;;572041;247;23079;-85
2023/07/11 10:36:45;;;;;;;5.22;4.55;;;33.70;93.50;35.00;100548;;;;571938;247;23078;-85
2023/07/11 10:39:20;;;;;;;4.70;4.40;;;36.70;83.50;35.80;100550;;;;553896;255;23121;-83
2023/07/11 10:42:03;;;;;;;7.03;6.15;;;36.60;83.40;36.20;100553;;;;557288;249;35289;-85
2023/07/11 10:44:34;;;;;;;4.62;4.32;;;37.20;73.50;35.30;100551;;;;564089;250;23133;-85
2023/07/11 10:47:04;;;;;;;4.62;4.10;;;36.50;72.20;34.50;100549;;;;573312;246;23169;-85
2023/07/11 10:49:41;;;;;;;4.82;4.28;;;35.70;72.90;34.00;100549;;;;572375;247;23076;-84
2023/07/11 10:52:24;;;;;;;5.00;4.60;;;35.00;74.40;34.00;100549;;;;571951;247;24114;-84
2023/07/11 10:55:26;;;;;;;4.62;4.37;;;34.70;77.10;33.80;100546;;;;580752;247;23138;-84
2023/07/11 10:57:57;;;;;;;4.50;4.10;;;34.40;77.00;33.50;100538;;;;572017;247;23077;-83
2023/07/11 11:00:26;;;;;;;5.97;5.47;;;34.00;76.90;33.20;100534;;;;571878;246;23069;-83
2023/07/11 11:02:58;;;;;;;5.40;4.97;;;33.70;76.90;32.80;100532;;;;572184;246;23079;-84
2023/07/11 11:05:47;;;;;;;4.43;4.03;;;33.40;78.40;32.40;100539;;;;554163;255;23135;-84
2023/07/11 11:08:19;;;;;;;4.72;4.00;;;32.50;81.20;32.00;100532;;;;563813;250;23132;-84
2023/07/11 11:10:59;;;;;;;5.22;4.15;;;32.40;81.10;31.60;100531;;;;571155;247;23171;-83
2023/07/11 11:14:07;;;;;;;7.62;4.70;;;32.10;82.70;31.30;100531;;;;573118;247;24075;-85
2023/07/11 11:16:38;;;;;;;4.57;4.18;;;32.40;83.30;31.00;100528;;;;566737;247;35111;-84
2023/07/11 11:19:30;;;;;;;9.35;4.80;;;31.20;83.30;30.70;100533;;;;571465;247;23144;-83
2023/07/11 11:22:19;;;;;;;4.80;4.10;;;31.20;83.30;30.30;100528;;;;554051;255;23149;-83